Slots 777

Canivete
Data Hora VISIB (KM) Cobertura(OITAVOS) DD Vento(º) Intensidade (NÓS) TEMP DO AR (º) Temp do Ponto de Orvalho(ºC) Pressão (hPa) TEMP MAX (ºC) TEMP MIN (ºC)
18/11/2020 18:00 4/10 7 28.00 25.30 1002.70
18/11/2020 12:00 2/4 8 25.50 23.60 1005.00 24.00
18/11/2020 00:00 50 0 27.00 24.30 1005.00 24.00
17/11/2020 18:00 4/10 8 29.00 26.40 1002.90
17/11/2020 4/10 7 29.00 26.40 1003.90 24.00
16/11/2020 18:00 4/10 4 31.50 27.10 1003.70
15/11/2020 00:00 50 0 28.00 24.00 1002.90 24.00
15/11/2020 18:00 4/10 7 31.00 25.70 1003.70
15/11/2020 12:00 4/10 7 30.50 27.40 1004.90 23.00
15/11/2020 00:00 0 28.00 25.30 1022.90 23.00
14/11/2020 18:00 7 29.00 26.40 1002.70
14/11/2020 12:00 2/4 8 27.00 24.30 1005.80 23.00
14/11/2020 00:00 50 0 27.50 24.30 1004.90 24.00
13/11/2020 18:00 4/10 5 31.00 27.10 1003.50
13/11/2020 12:00 4/10 7 30.50 26.10 1005.80 24.00
12/11/2020 12:00 4/10 7 28.50 25.30 1007.00 24.00
11/11/2020 00:00 50 0 27.50 24.30 1004.90 24.00
11/11/2020 18:00 4/10 8 30.00 26.10 1004.60
11/11/2020 18:00 4/10 5 30.00 26.10 1004.60
11/11/2020 12:00 4/10 7 29.00 26.40 1007.00 29.00 26.40
11/11/2020 00:00 50 0 27.50 24.30 1004.60
10/11/2020 18:00 20/50 8 130 15 29.00 25.00 1011.70
10/11/2020 18:00 2/4 6 31.00 25.70 1004.50
10/11/2020 12:00 4/10 7 29.00 25.00 1006.90 24.00
09/11/2020 12:00 4/10 6 29.00 26.40 1005.90 24.00
09/11/2020 00:00 50 0 28.00 24.00 1005.50 24.00
08/11/2020 18:00 4/10 5 31.50 27.10 1004.30
08/11/2020 12:00 4/10 6 30.50 26.10 1007.00 23.00
07/11/2020 00:00 50 0 27.50 24.30 1004.90 23.00
07/11/2020 18:00 4/10 6 32.00 26.80 1004.60
07/11/2020 12:00 2/4 8 26.00 24.30 1007.00 23.00
06/11/2020 00:00 50 0 28.50 24.00 1004.90 23.00
06/11/2020 18:00 4/10 7 30.00 26.10 1003.70 23.00
06/11/2020 12:00 4/10 7 29.50 25.00 1005.00 24.00
06/11/2020 06:00 4/10 4 26.40 24.70 1011.10
06/11/2020 00:00 50 26.50 23.30 1005.00
05/11/2020 12:00 4/10 8 26.00 24.70 1003.00
05/11/2020 12:00 4/10 7 29.50 26.40 1005.90 24.00
05/11/2020 00:00 50 28.00 24.00 1004.60 24.00
04/11/2020 18:00 4/10 7 31.00 25.70 1003.50
04/11/2020 12:00 4/10 8 28.00 25.30 1006.90 24.00
04/11/2020 00:00 50 0 28.00 24.00 1004.90 25.00
03/11/2020 18:00 4/10 7 32.50 25.40 1003.70 25.00
03/11/2020 12:00 2/4 7 28.50 25.30 1006.60 25.00
03/11/2020 00:00 4/10 5 28.50 25.30 1003.50
02/11/2020 18:00 6 33.00 25.10 1002.60
02/11/2020 12:00 4/10 29.00 25.00 1003.90 25.00
31/10/2020 00:00 4/10 4 27.00 24.30 1003.50 25.00
30/10/2020 18:00 4/10 7 31.50 25.70 1005.40
30/10/2020 12:00 4/10 7 30.50 24.70 1004.60
29/10/2020 00:00 4/10 3 28.00 25.30 1002.60 25.00
29/10/2020 18:00 4/10 6 32.00 25.40 1001.50
29/10/2020 12:00 4/10 5 31.00 25.70 1003.50 23.00
28/10/2020 00:00 4/10 7 27.50 24.30 1002.60
27/10/2020 18:00 4/10 6 32.50 25.40 1002.60
27/10/2020 12:00 4/10 7 29.50 25.00 1004.60 25.00
27/10/2020 00:00 4/10 6 28.00 24.00 1004.50 25.00
26/10/2020 18:00 10/20 5 28.50 25.30 1003.50
26/10/2020 12:00 4/10 7 29.50 24.60 1005.40 25.00
26/10/2020 12:00 4/10 7 29.50 24.60 1005.40 25.00
25/10/2020 00:00 50 0 27.00 21.30 1004.50 25.00
24/10/2020 18:00 4/10 7 32.50 25.40 1004.50
24/10/2020 12:00 4/10 5 30.50 26.10 1005.20 25.00
24/10/2020 00:00 50 0 26.50 23.30 1005.20
23/10/2020 18:00 4 32.50 24.00 1004.50
23/10/2020 12:00 4/10 7 30.50 26.10 1006.20
22/10/2020 00:00 50 0 28.00 25.30 1005.40 25.00
21/10/2020 18:00 10/20 5 32.50 25.40 1006.20
21/10/2020 12:00 4/10 7 29.50 26.40 1007.40 25.00
20/10/2020 18:00 10/20 6 31.50 25.70 1004.90
20/10/2020 12:00 10/20 6 31.00 25.70 1005.20 25.00
20/10/2020 06:00 4/10 5 26.60 24.30 1010.30
20/10/2020 00:00 50 0 27.00 24.30 1003.40 25.00
19/10/2020 18:00 4/10 7 32.00 25.40 1003.50
19/10/2020 12:00 4/10 6 30.50 26.10 1005.80 26.00
19/10/2020 00:00 50 0 29.00 25.00 1003.70 25.00
18/10/2020 18:00 10/20 3 32.50 24.00 1003.40
18/10/2020 12:00 4/10 5 31.00 25.70 1006.20 26.00
18/10/2020 00:00 4/10 6 30.00 24.70 1004.20
17/10/2020 18:00 4/10 6 30.00 24.70 1004.20
17/10/2020 12:00 4/10 5 29.50 25.00 1006.40 26.00
17/10/2020 00:00 50 28.00 24.00 1006.40
16/10/2020 18:00 10/20 5 31.50 24.30 1006.20
16/10/2020 00:00 50 27.00 22.90 1005.20 25.00
15/10/2020 18:00 4/10 7 32.00 24.00 1004.50
15/10/2020 12:00 10/20 6 30.00 24.70 1006.60
15/10/2020 00:00 50 0 28.00 24.00 1004.90 25.00
14/10/2020 18:00 4/10 7 30.50 24.70 1005.10 28.00
14/10/2020 12:00 4/10 7 28.50 24.00 1006.60
13/10/2020 00:00 50 0 29.50 23.60 1005.40 25.00
12/10/2020 18:00 10/20 5 32.50 26.80 1004.50
12/10/2020 12:00 50 3 30.50 26.10 1007.50 25.00
12/10/2020 06:00 20/50 4 25.40 10.00 1011.50
12/10/2020 00:00 50 0 29.00 25.00 1006.40 25.00
11/10/2020 18:00 4/10 6 33.00 26.50 1006.20
11/10/2020 12:00 10/20 7 29.50 23.60 1008.50 25.00
11/10/2020 00:00 50 0 28.00 25.30 1007.40
10/10/2020 18:00 10/20 5 33.00 25.10 1007.70
10/10/2020 12:00 10/20 7 30.50 24.70 1007.50 25.00
10/10/2020 00:00 20/50 1 28.00 24.00 1007.90 25.00
Slots 777 Mapa do site